createdAt,value
2022-08-19T00:01:53.791Z,21.00
2022-08-19T00:04:25.469Z,21.00
2022-08-19T00:06:54.617Z,21.00
2022-08-19T00:09:25.767Z,21.00
2022-08-19T00:11:56.728Z,20.90
2022-08-19T00:14:26.707Z,20.90
2022-08-19T00:16:56.407Z,20.90
2022-08-19T00:19:34.463Z,20.90
2022-08-19T00:22:03.533Z,20.90
2022-08-19T00:24:36.041Z,20.80
2022-08-19T00:27:26.025Z,20.80
2022-08-19T00:29:55.622Z,20.80
2022-08-19T00:32:24.051Z,20.80
2022-08-19T00:34:54.530Z,20.80
2022-08-19T00:37:24.158Z,20.80
2022-08-19T00:39:54.286Z,20.70
2022-08-19T00:42:23.991Z,20.80
2022-08-19T00:44:52.759Z,20.80
2022-08-19T00:47:21.332Z,20.80
2022-08-19T00:49:53.612Z,20.80
2022-08-19T00:52:25.743Z,20.80
2022-08-19T00:54:56.034Z,20.80
2022-08-19T00:57:30.107Z,20.80
2022-08-19T01:00:02.937Z,20.80
2022-08-19T01:02:34.577Z,20.80
2022-08-19T01:05:06.873Z,20.80
2022-08-19T01:07:38.238Z,20.80
2022-08-19T01:10:11.185Z,20.80
2022-08-19T01:12:40.412Z,20.80
2022-08-19T01:15:12.026Z,20.80
2022-08-19T01:17:42.759Z,20.80
2022-08-19T01:20:14.770Z,20.80
2022-08-19T01:22:47.946Z,20.80
2022-08-19T01:25:19.610Z,20.80
2022-08-19T01:27:53.556Z,20.80
2022-08-19T01:30:24.356Z,20.80
2022-08-19T01:32:57.976Z,20.80
2022-08-19T01:35:32.793Z,20.80
2022-08-19T01:38:09.345Z,20.80
2022-08-19T01:40:43.203Z,20.80
2022-08-19T01:43:11.930Z,20.80
2022-08-19T01:45:42.167Z,20.80
2022-08-19T01:48:19.868Z,20.80
2022-08-19T01:50:49.170Z,20.70
2022-08-19T01:53:19.135Z,20.80
2022-08-19T01:55:48.232Z,20.80
2022-08-19T01:58:21.957Z,20.80
2022-08-19T02:00:50.801Z,20.70
2022-08-19T02:03:19.522Z,20.80
2022-08-19T02:05:48.266Z,20.80
2022-08-19T02:08:22.665Z,20.80
2022-08-19T02:10:55.331Z,20.70
2022-08-19T02:13:26.289Z,20.80
2022-08-19T02:15:55.240Z,20.80
2022-08-19T02:18:29.480Z,20.80
2022-08-19T02:21:04.258Z,20.70
2022-08-19T02:23:34.301Z,20.70
2022-08-19T02:26:05.705Z,20.70
2022-08-19T02:28:39.143Z,20.80
2022-08-19T02:31:15.369Z,20.80
2022-08-19T02:33:47.324Z,20.80
2022-08-19T02:36:17.271Z,20.80
2022-08-19T02:38:54.983Z,20.80
2022-08-19T02:41:29.273Z,20.80
2022-08-19T02:44:26.362Z,20.80
2022-08-19T02:46:51.815Z,20.80
2022-08-19T02:49:25.643Z,20.80
2022-08-19T02:51:57.120Z,20.80
2022-08-19T02:54:26.617Z,20.70
2022-08-19T02:56:54.873Z,20.70
2022-08-19T02:59:28.729Z,20.70
2022-08-19T03:01:56.933Z,20.70
2022-08-19T03:04:27.795Z,20.70
2022-08-19T03:06:59.580Z,20.60
2022-08-19T03:09:32.784Z,20.60
2022-08-19T03:12:01.177Z,20.60
2022-08-19T03:14:35.187Z,20.60
2022-08-19T03:17:05.411Z,20.50
2022-08-19T03:19:33.980Z,20.50
2022-08-19T03:22:05.007Z,20.50
2022-08-19T03:24:34.897Z,20.50
2022-08-19T03:27:05.369Z,20.50
2022-08-19T03:29:34.678Z,20.40
2022-08-19T03:32:29.699Z,20.40
2022-08-19T03:35:01.687Z,20.40
2022-08-19T03:37:30.887Z,20.40
2022-08-19T03:40:01.057Z,20.40
2022-08-19T03:42:45.353Z,20.50
2022-08-19T03:45:18.713Z,20.50
2022-08-19T03:47:48.701Z,20.50
2022-08-19T03:50:19.740Z,20.50
2022-08-19T03:52:52.518Z,20.50
2022-08-19T03:55:22.399Z,20.50
2022-08-19T03:57:58.628Z,20.50
2022-08-19T04:00:28.436Z,20.50
2022-08-19T04:03:00.189Z,20.50
2022-08-19T04:05:29.769Z,20.50
2022-08-19T04:07:59.931Z,20.50
2022-08-19T04:10:29.800Z,20.50
2022-08-19T04:12:59.576Z,20.50
2022-08-19T04:15:34.424Z,20.50
2022-08-19T04:18:02.651Z,20.50
2022-08-19T04:20:31.288Z,20.50
2022-08-19T04:22:59.410Z,20.50
2022-08-19T04:25:28.941Z,20.50
2022-08-19T04:27:57.013Z,20.40
2022-08-19T04:30:25.312Z,20.40
2022-08-19T04:32:56.377Z,20.40
2022-08-19T04:35:24.993Z,20.30
2022-08-19T04:37:53.268Z,20.30
2022-08-19T04:40:39.569Z,20.30
2022-08-19T04:43:09.591Z,20.30
2022-08-19T04:45:43.526Z,20.30
2022-08-19T04:48:26.360Z,20.20
2022-08-19T04:50:58.505Z,20.30
2022-08-19T04:53:37.644Z,20.20
2022-08-19T04:56:09.479Z,20.30
2022-08-19T04:58:41.025Z,20.30
2022-08-19T05:01:11.250Z,20.30
2022-08-19T05:03:39.498Z,20.40
2022-08-19T05:06:18.180Z,20.40
2022-08-19T05:08:46.745Z,20.40
2022-08-19T05:11:17.752Z,20.40
2022-08-19T05:13:46.882Z,20.50
2022-08-19T05:16:20.565Z,20.50
2022-08-19T05:19:07.233Z,20.60
2022-08-19T05:21:55.146Z,20.70
2022-08-19T05:24:24.665Z,20.80
2022-08-19T05:26:57.492Z,20.90
2022-08-19T05:29:33.474Z,20.90
2022-08-19T05:32:11.550Z,20.90
2022-08-19T05:34:40.252Z,20.90
2022-08-19T05:37:10.726Z,20.90
2022-08-19T05:39:41.491Z,21.00
2022-08-19T05:42:12.704Z,21.00
2022-08-19T05:44:50.310Z,21.00
2022-08-19T05:47:20.549Z,21.00
2022-08-19T05:49:50.904Z,21.10
2022-08-19T05:52:25.990Z,21.10
2022-08-19T05:54:56.598Z,21.20
2022-08-19T05:57:25.368Z,21.20
2022-08-19T05:59:58.081Z,21.30
2022-08-19T06:02:32.515Z,21.30
2022-08-19T06:05:00.840Z,21.40
2022-08-19T06:07:30.642Z,21.50
2022-08-19T06:10:00.959Z,21.50
2022-08-19T06:12:32.788Z,21.50
2022-08-19T06:15:02.219Z,21.50
2022-08-19T06:17:31.675Z,21.60
2022-08-19T06:20:00.673Z,21.60
2022-08-19T06:22:30.579Z,21.70
2022-08-19T06:25:01.996Z,21.70
2022-08-19T06:27:32.120Z,21.80
2022-08-19T06:30:00.368Z,21.90
2022-08-19T06:32:28.921Z,21.90
2022-08-19T06:34:57.210Z,22.00
2022-08-19T06:37:26.382Z,22.00
2022-08-19T06:39:58.303Z,22.00
2022-08-19T06:42:29.164Z,22.00
2022-08-19T06:45:00.167Z,22.10
2022-08-19T06:47:32.031Z,22.10
2022-08-19T06:50:05.390Z,22.10
2022-08-19T06:52:41.344Z,22.00
2022-08-19T06:55:12.632Z,22.10
2022-08-19T06:57:47.768Z,22.10
2022-08-19T07:00:20.178Z,22.10
2022-08-19T07:02:53.237Z,22.20
2022-08-19T07:05:28.749Z,22.20
2022-08-19T07:07:59.723Z,22.20
2022-08-19T07:10:33.723Z,22.20
2022-08-19T07:13:02.178Z,22.20
2022-08-19T07:15:41.744Z,22.20
2022-08-19T07:18:17.361Z,22.30
2022-08-19T07:20:52.509Z,22.40
2022-08-19T07:23:27.097Z,22.40
2022-08-19T07:28:35.471Z,22.70
2022-08-19T07:31:06.760Z,22.60
2022-08-19T07:33:39.922Z,22.70
2022-08-19T07:36:12.395Z,22.70
2022-08-19T07:38:46.269Z,22.80
2022-08-19T07:41:18.283Z,22.90
2022-08-19T07:43:46.788Z,23.10
2022-08-19T07:46:15.591Z,23.10
2022-08-19T07:48:46.748Z,23.30
2022-08-19T07:51:16.518Z,23.40
2022-08-19T07:54:11.505Z,23.50
2022-08-19T07:56:46.995Z,23.70
2022-08-19T07:59:18.627Z,23.90
2022-08-19T08:01:47.271Z,24.00
2022-08-19T08:04:33.723Z,24.00
2022-08-19T08:07:22.634Z,24.10
2022-08-19T08:12:35.167Z,24.20
2022-08-19T08:15:17.367Z,24.00
2022-08-19T08:17:52.094Z,24.00
2022-08-19T08:20:21.834Z,23.80
2022-08-19T08:23:10.679Z,23.70
2022-08-19T08:25:39.606Z,23.70
2022-08-19T08:28:11.201Z,23.70
2022-08-19T08:30:45.310Z,23.80
2022-08-19T08:33:18.591Z,24.00
2022-08-19T08:36:05.042Z,24.20
2022-08-19T08:38:42.756Z,24.40
2022-08-19T08:41:21.554Z,24.50
2022-08-19T08:43:54.810Z,24.50
2022-08-19T08:46:31.645Z,24.30
2022-08-19T08:49:10.553Z,24.20
2022-08-19T08:51:56.193Z,24.20
2022-08-19T08:54:48.839Z,24.20
2022-08-19T08:57:37.079Z,24.30
2022-08-19T09:00:17.703Z,24.30
2022-08-19T09:02:50.906Z,24.40
2022-08-19T09:05:26.073Z,24.50
2022-08-19T09:08:06.436Z,24.60
2022-08-19T09:10:44.207Z,24.60
2022-08-19T09:13:23.556Z,24.70
2022-08-19T09:16:10.134Z,24.90
2022-08-19T09:18:44.907Z,25.00
2022-08-19T09:21:14.219Z,25.20
2022-08-19T09:23:43.719Z,25.40
2022-08-19T09:26:16.578Z,25.60
2022-08-19T09:28:48.876Z,25.90
2022-08-19T09:31:21.393Z,26.00
2022-08-19T09:33:52.305Z,26.20
2022-08-19T09:36:34.634Z,26.10
2022-08-19T09:39:03.818Z,26.00
2022-08-19T09:41:32.927Z,26.00
2022-08-19T09:44:02.694Z,25.90
2022-08-19T09:46:33.478Z,25.60
2022-08-19T09:49:07.451Z,25.50
2022-08-19T09:51:36.579Z,25.30
2022-08-19T09:54:07.226Z,25.40
2022-08-19T09:56:40.414Z,25.60
2022-08-19T09:59:16.958Z,25.80
2022-08-19T10:01:54.522Z,26.20
2022-08-19T10:04:48.162Z,26.60
2022-08-19T10:07:16.989Z,26.70
2022-08-19T10:09:51.891Z,26.60
2022-08-19T10:12:23.940Z,26.40
2022-08-19T10:14:55.474Z,26.70
2022-08-19T10:17:26.887Z,26.50
2022-08-19T10:20:04.089Z,26.40
2022-08-19T10:22:35.115Z,26.30
2022-08-19T10:25:03.553Z,26.50
2022-08-19T10:27:32.252Z,26.80
2022-08-19T10:30:00.695Z,26.80
2022-08-19T10:32:33.873Z,26.70
2022-08-19T10:35:13.533Z,26.80
2022-08-19T10:37:57.119Z,27.00
2022-08-19T10:40:26.062Z,27.20
2022-08-19T10:42:57.396Z,26.90
2022-08-19T10:45:28.835Z,27.00
2022-08-19T10:48:00.430Z,27.30
2022-08-19T10:50:55.042Z,27.40
2022-08-19T10:53:26.515Z,27.40
2022-08-19T10:56:13.076Z,27.20
2022-08-19T10:58:42.857Z,27.30
2022-08-19T11:01:11.382Z,27.40
2022-08-19T11:03:41.577Z,27.40
2022-08-19T11:06:11.018Z,27.20
2022-08-19T11:08:41.810Z,27.40
2022-08-19T11:11:11.609Z,27.40
2022-08-19T11:13:47.585Z,27.40
2022-08-19T11:16:18.861Z,27.30
2022-08-19T11:18:51.581Z,27.40
2022-08-19T11:21:22.406Z,27.50
2022-08-19T11:23:53.663Z,27.40
2022-08-19T11:26:26.633Z,27.40
2022-08-19T11:28:56.209Z,27.50
2022-08-19T11:31:29.211Z,27.70
2022-08-19T11:34:02.612Z,27.80
2022-08-19T11:36:36.312Z,27.80
2022-08-19T11:39:07.824Z,27.70
2022-08-19T11:41:37.704Z,27.80
2022-08-19T11:44:07.857Z,27.90
2022-08-19T11:46:41.246Z,27.90
2022-08-19T11:49:20.111Z,28.00
2022-08-19T11:51:51.131Z,28.10
2022-08-19T11:54:22.924Z,28.20
2022-08-19T11:56:53.579Z,28.40
2022-08-19T11:59:25.546Z,28.50
2022-08-19T12:01:53.838Z,28.70
2022-08-19T12:04:24.938Z,28.80
2022-08-19T12:06:54.134Z,28.80
2022-08-19T12:09:23.390Z,28.90
2022-08-19T12:11:52.157Z,29.00
2022-08-19T12:14:20.875Z,28.50
2022-08-19T12:16:50.948Z,28.40
2022-08-19T12:19:21.966Z,28.40
2022-08-19T12:21:54.022Z,28.80
2022-08-19T12:24:24.395Z,28.80
2022-08-19T12:26:54.067Z,29.00
2022-08-19T12:29:30.643Z,29.30
2022-08-19T12:32:02.250Z,29.60
2022-08-19T12:34:33.303Z,29.30
2022-08-19T12:37:05.551Z,28.80
2022-08-19T12:39:36.979Z,28.70
2022-08-19T12:42:07.043Z,28.80
2022-08-19T12:44:35.278Z,28.90
2022-08-19T12:47:05.403Z,29.10
2022-08-19T12:49:54.647Z,29.50
2022-08-19T12:52:28.024Z,29.60
2022-08-19T12:54:58.321Z,29.80
2022-08-19T12:57:32.986Z,30.40
2022-08-19T13:00:05.259Z,30.30
2022-08-19T13:02:38.992Z,30.50
2022-08-19T13:05:10.728Z,30.30
2022-08-19T13:07:41.684Z,30.00
2022-08-19T13:10:16.897Z,30.20
2022-08-19T13:12:50.149Z,30.30
2022-08-19T13:15:23.729Z,30.70
2022-08-19T13:17:54.771Z,30.60
2022-08-19T13:20:24.315Z,30.90
2022-08-19T13:22:58.284Z,31.20
2022-08-19T13:25:26.502Z,31.20
2022-08-19T13:27:56.680Z,31.20
2022-08-19T13:30:48.179Z,31.10
2022-08-19T13:33:17.035Z,31.10
2022-08-19T13:35:51.877Z,31.50
2022-08-19T13:38:24.359Z,32.10
2022-08-19T13:41:03.251Z,32.30
2022-08-19T13:43:34.046Z,32.40
2022-08-19T13:46:15.027Z,32.20
2022-08-19T13:48:48.222Z,31.80
2022-08-19T13:51:29.899Z,31.70
2022-08-19T13:53:59.690Z,31.80
2022-08-19T13:56:31.165Z,31.90
2022-08-19T13:58:59.659Z,32.20
2022-08-19T14:01:31.578Z,32.20
2022-08-19T14:04:00.141Z,32.50
2022-08-19T14:06:29.107Z,31.90
2022-08-19T14:08:58.233Z,31.30
2022-08-19T14:11:28.973Z,31.00
2022-08-19T14:13:57.523Z,30.60
2022-08-19T14:16:31.416Z,30.50
2022-08-19T14:19:00.107Z,30.80
2022-08-19T14:21:28.544Z,30.60
2022-08-19T14:23:57.475Z,30.60
2022-08-19T14:26:29.903Z,30.20
2022-08-19T14:29:04.758Z,30.00
2022-08-19T14:31:33.628Z,30.50
2022-08-19T14:34:02.001Z,30.90
2022-08-19T14:36:31.025Z,31.60
2022-08-19T14:39:01.243Z,32.00
2022-08-19T14:41:31.218Z,32.20
2022-08-19T14:43:59.889Z,32.30
2022-08-19T14:46:30.494Z,32.40
2022-08-19T14:48:59.826Z,32.00
2022-08-19T14:51:28.589Z,31.80
2022-08-19T14:53:57.401Z,31.40
2022-08-19T14:56:28.554Z,30.90
2022-08-19T14:59:01.513Z,30.80
2022-08-19T15:01:37.158Z,30.90
2022-08-19T15:04:06.101Z,31.30
2022-08-19T15:06:35.364Z,31.20
2022-08-19T15:09:07.199Z,31.20
2022-08-19T15:11:35.616Z,31.10
2022-08-19T15:14:09.564Z,30.80
2022-08-19T15:16:41.963Z,30.80
2022-08-19T15:19:10.798Z,30.70
2022-08-19T15:21:39.150Z,30.80
2022-08-19T15:24:08.098Z,30.80
2022-08-19T15:26:37.153Z,30.90
2022-08-19T15:29:08.308Z,30.90
2022-08-19T15:31:38.741Z,30.70
2022-08-19T15:34:10.289Z,30.20
2022-08-19T15:36:45.043Z,30.20
2022-08-19T15:39:13.361Z,30.00
2022-08-19T15:41:46.204Z,29.80
2022-08-19T15:44:22.475Z,29.80
2022-08-19T15:46:51.735Z,29.80
2022-08-19T15:49:39.426Z,29.80
2022-08-19T15:52:15.892Z,29.90
2022-08-19T15:54:50.919Z,30.30
2022-08-19T15:57:46.890Z,30.70
2022-08-19T16:00:35.050Z,30.80
2022-08-19T16:03:20.720Z,31.00
2022-08-19T16:06:08.225Z,30.60
2022-08-19T16:08:49.115Z,30.30
2022-08-19T16:11:21.294Z,30.20
2022-08-19T16:13:54.256Z,30.00
2022-08-19T16:16:31.067Z,29.90
2022-08-19T16:19:15.168Z,30.00
2022-08-19T16:21:47.646Z,29.80
2022-08-19T16:24:19.034Z,29.70
2022-08-19T16:26:59.639Z,29.60
2022-08-19T16:29:34.683Z,29.60
2022-08-19T16:32:23.743Z,28.70
2022-08-19T16:35:06.668Z,29.30
2022-08-19T16:37:36.187Z,29.20
2022-08-19T16:40:05.572Z,29.20
2022-08-19T16:42:37.505Z,29.30
2022-08-19T16:45:08.992Z,29.50
2022-08-19T16:47:41.606Z,29.60
2022-08-19T16:50:09.920Z,29.60
2022-08-19T16:52:38.195Z,29.70
2022-08-19T16:55:08.609Z,29.80
2022-08-19T16:57:37.712Z,29.80
2022-08-19T17:00:11.970Z,29.60
2022-08-19T17:02:50.228Z,29.40
2022-08-19T17:05:19.150Z,29.20
2022-08-19T17:07:56.612Z,29.20
2022-08-19T17:10:25.635Z,29.00
2022-08-19T17:12:54.924Z,28.80
2022-08-19T17:15:23.724Z,28.60
2022-08-19T17:17:56.941Z,28.50
2022-08-19T17:20:25.296Z,28.40
2022-08-19T17:23:00.238Z,28.40
2022-08-19T17:25:31.647Z,28.30
2022-08-19T17:28:07.210Z,28.20
2022-08-19T17:30:35.465Z,28.20
2022-08-19T17:33:05.905Z,28.10
2022-08-19T17:35:35.454Z,28.00
2022-08-19T17:38:05.791Z,27.90
2022-08-19T17:40:34.472Z,27.80
2022-08-19T17:43:04.462Z,27.80
2022-08-19T17:45:33.023Z,27.70
2022-08-19T17:48:02.251Z,27.80
2022-08-19T17:50:35.807Z,27.80
2022-08-19T17:53:05.497Z,27.80
2022-08-19T17:55:36.289Z,27.80
2022-08-19T17:58:05.606Z,27.80
2022-08-19T18:00:53.332Z,27.80
2022-08-19T18:03:22.490Z,27.70
2022-08-19T18:05:53.820Z,27.70
2022-08-19T18:08:42.762Z,27.60
2022-08-19T18:11:22.203Z,27.60
2022-08-19T18:13:57.806Z,27.50
2022-08-19T18:16:35.991Z,27.50
2022-08-19T18:19:15.157Z,27.40
2022-08-19T18:21:54.942Z,27.40
2022-08-19T18:24:25.411Z,27.30
2022-08-19T18:26:56.872Z,27.30
2022-08-19T18:29:34.445Z,27.30
2022-08-19T18:32:06.379Z,27.20
2022-08-19T18:34:40.933Z,27.20
2022-08-19T18:37:16.757Z,27.10
2022-08-19T18:40:03.346Z,27.10
2022-08-19T18:42:54.675Z,27.00
2022-08-19T18:45:43.674Z,26.90
2022-08-19T18:48:33.562Z,26.90
2022-08-19T18:51:02.955Z,26.90
2022-08-19T18:53:35.524Z,26.80
2022-08-19T18:56:03.883Z,26.80
2022-08-19T18:58:34.738Z,26.70
2022-08-19T19:01:11.424Z,26.70
2022-08-19T19:03:41.783Z,26.60
2022-08-19T19:06:09.781Z,26.50
2022-08-19T19:08:41.003Z,26.40
2022-08-19T19:11:09.493Z,26.40
2022-08-19T19:13:39.842Z,26.30
2022-08-19T19:16:09.595Z,26.20
2022-08-19T19:18:38.013Z,26.10
2022-08-19T19:21:06.385Z,26.10
2022-08-19T19:23:34.715Z,26.00
2022-08-19T19:26:04.456Z,26.00
2022-08-19T19:28:33.184Z,25.90
2022-08-19T19:31:01.142Z,25.80
2022-08-19T19:33:29.600Z,25.70
2022-08-19T19:35:57.942Z,25.70
2022-08-19T19:38:25.995Z,25.60
2022-08-19T19:40:54.036Z,25.50
2022-08-19T19:43:23.590Z,25.50
2022-08-19T19:45:52.154Z,25.40
2022-08-19T19:48:20.106Z,25.30
2022-08-19T19:50:53.887Z,25.20
2022-08-19T19:53:26.139Z,25.20
2022-08-19T19:55:57.606Z,25.10
2022-08-19T19:58:28.399Z,25.10
2022-08-19T20:00:57.901Z,25.00
2022-08-19T20:03:26.194Z,25.00
2022-08-19T20:05:54.920Z,24.90
2022-08-19T20:08:40.486Z,24.90
2022-08-19T20:11:08.686Z,24.80
2022-08-19T20:13:40.678Z,24.70
2022-08-19T20:16:09.195Z,24.60
2022-08-19T20:18:38.822Z,24.60
2022-08-19T20:21:07.398Z,24.50
2022-08-19T20:23:35.717Z,24.40
2022-08-19T20:26:03.657Z,24.30
2022-08-19T20:28:31.862Z,24.20
2022-08-19T20:31:01.830Z,24.10
2022-08-19T20:33:32.229Z,24.10
2022-08-19T20:36:00.357Z,24.00
2022-08-19T20:38:28.447Z,23.90
2022-08-19T20:40:56.530Z,23.90
2022-08-19T20:43:24.544Z,23.80
2022-08-19T20:45:52.699Z,23.80
2022-08-19T20:48:22.116Z,23.70
2022-08-19T20:50:50.556Z,23.70
2022-08-19T20:53:20.581Z,23.60
2022-08-19T20:55:50.338Z,23.60
2022-08-19T20:58:21.129Z,23.50
2022-08-19T21:00:50.859Z,23.40
2022-08-19T21:03:23.234Z,23.40
2022-08-19T21:05:52.007Z,23.30
2022-08-19T21:08:20.062Z,23.30
2022-08-19T21:10:49.811Z,23.20
2022-08-19T21:13:18.984Z,23.10
2022-08-19T21:15:47.428Z,23.00
2022-08-19T21:18:17.516Z,23.00
2022-08-19T21:20:47.642Z,22.90
2022-08-19T21:23:21.596Z,22.90
2022-08-19T21:25:54.749Z,22.90
2022-08-19T21:28:34.596Z,22.80
2022-08-19T21:31:06.568Z,22.70
2022-08-19T21:33:34.836Z,22.70
2022-08-19T21:36:06.436Z,22.60
2022-08-19T21:38:37.439Z,22.60
2022-08-19T21:41:06.875Z,22.60
2022-08-19T21:43:35.581Z,22.50
2022-08-19T21:46:04.148Z,22.40
2022-08-19T21:48:32.859Z,22.30
2022-08-19T21:51:01.030Z,22.30
2022-08-19T21:53:34.529Z,22.20
2022-08-19T21:56:03.446Z,22.20
2022-08-19T21:58:31.634Z,22.10
2022-08-19T22:01:00.002Z,22.10
2022-08-19T22:03:28.422Z,22.00
2022-08-19T22:05:56.715Z,22.00
2022-08-19T22:08:25.105Z,22.00
2022-08-19T22:10:55.162Z,21.90
2022-08-19T22:13:23.449Z,21.90
2022-08-19T22:15:52.556Z,21.80
2022-08-19T22:18:20.514Z,21.80
2022-08-19T22:20:49.076Z,21.80
2022-08-19T22:23:17.112Z,21.70
2022-08-19T22:25:47.296Z,21.70
2022-08-19T22:28:27.588Z,21.60
2022-08-19T22:30:56.275Z,21.60
2022-08-19T22:33:25.693Z,21.50
2022-08-19T22:35:54.696Z,21.50
2022-08-19T22:38:23.169Z,21.40
2022-08-19T22:40:52.312Z,21.40
2022-08-19T22:43:23.970Z,21.40
2022-08-19T22:45:53.821Z,21.40
2022-08-19T22:48:23.977Z,21.40
2022-08-19T22:56:54.747Z,21.30
2022-08-19T22:59:24.290Z,21.30
2022-08-19T23:01:52.268Z,21.30
2022-08-19T23:04:21.012Z,21.30
2022-08-19T23:06:49.008Z,21.30
2022-08-19T23:09:17.300Z,21.30
2022-08-19T23:11:46.289Z,21.30
2022-08-19T23:14:16.208Z,21.30
2022-08-19T23:16:50.690Z,21.30
2022-08-19T23:19:19.544Z,21.20
2022-08-19T23:21:47.590Z,21.30
2022-08-19T23:24:15.656Z,21.30
2022-08-19T23:27:04.375Z,21.30
2022-08-19T23:29:50.258Z,21.30
2022-08-19T23:32:20.144Z,21.20
2022-08-19T23:34:48.866Z,21.30
2022-08-19T23:37:17.184Z,21.20
2022-08-19T23:39:45.453Z,21.20
2022-08-19T23:42:14.042Z,21.20
2022-08-19T23:44:51.346Z,21.20
2022-08-19T23:47:22.322Z,21.20
2022-08-19T23:49:50.884Z,21.10
2022-08-19T23:52:19.079Z,21.10
2022-08-19T23:54:47.253Z,21.00
2022-08-19T23:57:15.215Z,21.00
2022-08-19T23:59:45.227Z,21.00
